sensor_id;sensor_type;location;lat;lon;timestamp;pressure;altitude;pressure_sealevel;temperature;humidity
2761;BME280;15420;48.636;9.798;2022-10-12T00:02:21;97330.28;;;16.21;100.00
2761;BME280;15420;48.636;9.798;2022-10-12T00:04:49;97326.81;;;16.19;100.00
2761;BME280;15420;48.636;9.798;2022-10-12T00:07:18;97313.81;;;16.19;100.00
2761;BME280;15420;48.636;9.798;2022-10-12T00:09:46;97315.53;;;16.19;100.00
2761;BME280;15420;48.636;9.798;2022-10-12T00:12:12;97319.88;;;16.18;100.00
2761;BME280;15420;48.636;9.798;2022-10-12T00:14:41;97315.53;;;16.17;100.00
2761;BME280;15420;48.636;9.798;2022-10-12T00:17:07;97316.38;;;16.16;100.00
2761;BME280;15420;48.636;9.798;2022-10-12T00:19:33;97314.63;;;16.15;100.00
2761;BME280;15420;48.636;9.798;2022-10-12T00:21:59;97315.50;;;16.14;100.00
2761;BME280;15420;48.636;9.798;2022-10-12T00:24:25;97314.63;;;16.14;100.00
2761;BME280;15420;48.636;9.798;2022-10-12T00:26:51;97316.34;;;16.13;100.00
2761;BME280;15420;48.636;9.798;2022-10-12T00:29:20;97318.97;;;16.13;100.00
2761;BME280;15420;48.636;9.798;2022-10-12T00:31:46;97327.63;;;16.14;100.00
2761;BME280;15420;48.636;9.798;2022-10-12T00:34:12;97318.97;;;16.13;100.00
2761;BME280;15420;48.636;9.798;2022-10-12T00:36:40;97327.63;;;16.12;100.00
2761;BME280;15420;48.636;9.798;2022-10-12T00:39:08;97321.53;;;16.12;100.00
2761;BME280;15420;48.636;9.798;2022-10-12T00:41:40;97312.88;;;16.13;100.00
2761;BME280;15420;48.636;9.798;2022-10-12T00:44:33;97314.63;;;16.12;100.00
2761;BME280;15420;48.636;9.798;2022-10-12T00:47:16;97312.00;;;16.11;100.00
2761;BME280;15420;48.636;9.798;2022-10-12T00:49:50;97304.19;;;16.09;100.00
2761;BME280;15420;48.636;9.798;2022-10-12T00:52:23;97311.13;;;16.09;100.00
2761;BME280;15420;48.636;9.798;2022-10-12T00:54:53;97305.03;;;16.07;100.00
2761;BME280;15420;48.636;9.798;2022-10-12T00:57:21;97307.63;;;16.05;100.00
2761;BME280;15420;48.636;9.798;2022-10-12T00:59:54;97305.88;;;16.04;100.00
2761;BME280;15420;48.636;9.798;2022-10-12T01:02:24;97300.69;;;16.04;100.00
2761;BME280;15420;48.636;9.798;2022-10-12T01:04:53;97297.22;;;16.02;100.00
2761;BME280;15420;48.636;9.798;2022-10-12T01:07:20;97303.28;;;16.02;100.00
2761;BME280;15420;48.636;9.798;2022-10-12T01:09:48;97296.34;;;16.01;100.00
2761;BME280;15420;48.636;9.798;2022-10-12T01:12:15;97298.06;;;15.99;100.00
2761;BME280;15420;48.636;9.798;2022-10-12T01:14:41;97308.44;;;15.99;100.00
2761;BME280;15420;48.636;9.798;2022-10-12T01:17:19;97301.53;;;16.00;100.00
2761;BME280;15420;48.636;9.798;2022-10-12T01:30:58;97292.75;;;15.86;100.00
2761;BME280;15420;48.636;9.798;2022-10-12T01:33:38;97296.19;;;15.83;100.00
2761;BME280;15420;48.636;9.798;2022-10-12T01:36:34;97291.81;;;15.79;100.00
2761;BME280;15420;48.636;9.798;2022-10-12T01:39:16;97284.84;;;15.75;100.00
2761;BME280;15420;48.636;9.798;2022-10-12T01:41:55;97287.41;;;15.72;100.00
2761;BME280;15420;48.636;9.798;2022-10-12T01:44:26;97288.25;;;15.69;100.00
2761;BME280;15420;48.636;9.798;2022-10-12T01:46:55;97283.03;;;15.66;100.00
2761;BME280;15420;48.636;9.798;2022-10-12T01:49:24;97284.75;;;15.63;100.00
2761;BME280;15420;48.636;9.798;2022-10-12T01:55:13;97288.97;;;15.53;100.00
2761;BME280;15420;48.636;9.798;2022-10-12T02:00:23;97285.38;;;15.41;100.00
2761;BME280;15420;48.636;9.798;2022-10-12T02:06:09;97290.47;;;15.30;100.00
2761;BME280;15420;48.636;9.798;2022-10-12T02:11:04;97291.22;;;15.20;100.00
2761;BME280;15420;48.636;9.798;2022-10-12T02:13:37;97296.38;;;15.15;100.00
2761;BME280;15420;48.636;9.798;2022-10-12T02:16:11;97294.59;;;15.11;100.00
2761;BME280;15420;48.636;9.798;2022-10-12T02:18:43;97291.94;;;15.07;100.00
2761;BME280;15420;48.636;9.798;2022-10-12T02:21:16;97291.91;;;15.03;100.00
2761;BME280;15420;48.636;9.798;2022-10-12T02:23:47;97290.97;;;14.98;100.00
2761;BME280;15420;48.636;9.798;2022-10-12T02:26:17;97287.50;;;14.96;100.00
2761;BME280;15420;48.636;9.798;2022-10-12T02:28:47;97291.78;;;14.94;100.00
2761;BME280;15420;48.636;9.798;2022-10-12T02:31:51;97289.22;;;14.96;100.00
2761;BME280;15420;48.636;9.798;2022-10-12T02:34:37;97289.19;;;14.94;100.00
2761;BME280;15420;48.636;9.798;2022-10-12T02:37:32;97288.31;;;14.94;100.00
2761;BME280;15420;48.636;9.798;2022-10-12T02:40:20;97285.72;;;14.94;100.00
2761;BME280;15420;48.636;9.798;2022-10-12T02:42:56;97286.63;;;14.96;100.00
2761;BME280;15420;48.636;9.798;2022-10-12T02:45:26;97292.66;;;14.95;100.00
2761;BME280;15420;48.636;9.798;2022-10-12T02:47:54;97283.16;;;14.97;100.00
2761;BME280;15420;48.636;9.798;2022-10-12T02:50:23;97286.69;;;15.00;100.00
2761;BME280;15420;48.636;9.798;2022-10-12T02:52:51;97289.28;;;15.02;100.00
2761;BME280;15420;48.636;9.798;2022-10-12T02:55:18;97280.66;;;15.04;100.00
2761;BME280;15420;48.636;9.798;2022-10-12T02:57:44;97283.28;;;15.08;100.00
2761;BME280;15420;48.636;9.798;2022-10-12T03:00:12;97279.88;;;15.12;100.00
2761;BME280;15420;48.636;9.798;2022-10-12T03:02:39;97281.63;;;15.14;100.00
2761;BME280;15420;48.636;9.798;2022-10-12T03:05:05;97280.81;;;15.17;100.00
2761;BME280;15420;48.636;9.798;2022-10-12T03:07:33;97273.06;;;15.20;100.00
2761;BME280;15420;48.636;9.798;2022-10-12T03:10:00;97284.34;;;15.25;100.00
2761;BME280;15420;48.636;9.798;2022-10-12T03:12:28;97282.66;;;15.27;100.00
2761;BME280;15420;48.636;9.798;2022-10-12T03:14:57;97280.09;;;15.30;100.00
2761;BME280;15420;48.636;9.798;2022-10-12T03:17:28;97279.25;;;15.32;100.00
2761;BME280;15420;48.636;9.798;2022-10-12T03:19:54;97283.59;;;15.33;100.00
2761;BME280;15420;48.636;9.798;2022-10-12T03:22:23;97281.88;;;15.37;100.00
2761;BME280;15420;48.636;9.798;2022-10-12T03:24:51;97292.31;;;15.40;100.00
2761;BME280;15420;48.636;9.798;2022-10-12T03:27:17;97289.72;;;15.42;100.00
2761;BME280;15420;48.636;9.798;2022-10-12T03:29:46;97291.47;;;15.44;100.00
2761;BME280;15420;48.636;9.798;2022-10-12T03:32:14;97288.91;;;15.46;100.00
2761;BME280;15420;48.636;9.798;2022-10-12T03:34:43;97288.91;;;15.47;100.00
2761;BME280;15420;48.636;9.798;2022-10-12T03:37:09;97286.31;;;15.46;100.00
2761;BME280;15420;48.636;9.798;2022-10-12T03:39:38;97297.59;;;15.48;100.00
2761;BME280;15420;48.636;9.798;2022-10-12T03:42:04;97295.88;;;15.51;100.00
2761;BME280;15420;48.636;9.798;2022-10-12T03:44:30;97293.28;;;15.51;100.00
2761;BME280;15420;48.636;9.798;2022-10-12T03:46:59;97299.38;;;15.55;100.00
2761;BME280;15420;48.636;9.798;2022-10-12T03:49:27;97296.78;;;15.56;100.00
2761;BME280;15420;48.636;9.798;2022-10-12T03:51:53;97302.91;;;15.57;100.00
2761;BME280;15420;48.636;9.798;2022-10-12T03:54:22;97299.47;;;15.59;100.00
2761;BME280;15420;48.636;9.798;2022-10-12T03:56:50;97297.72;;;15.60;100.00
2761;BME280;15420;48.636;9.798;2022-10-12T03:59:16;97291.66;;;15.61;100.00
2761;BME280;15420;48.636;9.798;2022-10-12T04:01:45;97296.84;;;15.61;100.00
2761;BME280;15420;48.636;9.798;2022-10-12T04:04:13;97298.56;;;15.60;100.00
2761;BME280;15420;48.636;9.798;2022-10-12T04:06:42;97295.13;;;15.61;100.00
2761;BME280;15420;48.636;9.798;2022-10-12T04:09:08;97296.84;;;15.62;100.00
2761;BME280;15420;48.636;9.798;2022-10-12T04:11:34;97301.19;;;15.63;100.00
2761;BME280;15420;48.636;9.798;2022-10-12T04:14:00;97302.06;;;15.62;100.00
2761;BME280;15420;48.636;9.798;2022-10-12T04:16:28;97293.41;;;15.63;100.00
2761;BME280;15420;48.636;9.798;2022-10-12T04:18:59;97296.03;;;15.66;100.00
2761;BME280;15420;48.636;9.798;2022-10-12T04:21:25;97297.75;;;15.64;100.00
2761;BME280;15420;48.636;9.798;2022-10-12T04:23:57;97300.34;;;15.66;100.00
2761;BME280;15420;48.636;9.798;2022-10-12T04:26:23;97296.03;;;15.68;100.00
2761;BME280;15420;48.636;9.798;2022-10-12T04:28:49;97298.66;;;15.68;100.00
2761;BME280;15420;48.636;9.798;2022-10-12T04:31:15;97298.66;;;15.69;100.00
2761;BME280;15420;48.636;9.798;2022-10-12T04:33:43;97299.53;;;15.70;100.00
2761;BME280;15420;48.636;9.798;2022-10-12T04:36:09;97305.59;;;15.70;100.00
2761;BME280;15420;48.636;9.798;2022-10-12T04:38:36;97296.94;;;15.72;100.00
2761;BME280;15420;48.636;9.798;2022-10-12T04:41:02;97307.34;;;15.72;100.00
2761;BME280;15420;48.636;9.798;2022-10-12T04:43:28;97307.38;;;15.75;100.00
2761;BME280;15420;48.636;9.798;2022-10-12T04:46:00;97302.16;;;15.75;100.00
2761;BME280;15420;48.636;9.798;2022-10-12T04:48:27;97298.72;;;15.76;100.00
2761;BME280;15420;48.636;9.798;2022-10-12T04:50:55;97305.66;;;15.77;100.00
2761;BME280;15420;48.636;9.798;2022-10-12T04:53:24;97299.59;;;15.76;100.00
2761;BME280;15420;48.636;9.798;2022-10-12T04:55:50;97298.72;;;15.77;100.00
2761;BME280;15420;48.636;9.798;2022-10-12T04:58:18;97296.13;;;15.79;100.00
2761;BME280;15420;48.636;9.798;2022-10-12T05:00:47;97295.28;;;15.78;100.00
2761;BME280;15420;48.636;9.798;2022-10-12T05:03:13;97297.88;;;15.78;100.00
2761;BME280;15420;48.636;9.798;2022-10-12T05:05:40;97305.66;;;15.78;100.00
2761;BME280;15420;48.636;9.798;2022-10-12T05:08:08;97299.59;;;15.78;100.00
2761;BME280;15420;48.636;9.798;2022-10-12T05:10:37;97305.69;;;15.80;100.00
2761;BME280;15420;48.636;9.798;2022-10-12T05:13:03;97303.94;;;15.79;100.00
2761;BME280;15420;48.636;9.798;2022-10-12T05:15:32;97303.94;;;15.79;100.00
2761;BME280;15420;48.636;9.798;2022-10-12T05:18:00;97304.81;;;15.79;100.00
2761;BME280;15420;48.636;9.798;2022-10-12T05:20:29;97299.63;;;15.79;100.00
2761;BME280;15420;48.636;9.798;2022-10-12T05:22:58;97302.22;;;15.81;100.00
2761;BME280;15420;48.636;9.798;2022-10-12T05:25:24;97300.47;;;15.80;100.00
2761;BME280;15420;48.636;9.798;2022-10-12T05:27:50;97295.28;;;15.81;100.00
2761;BME280;15420;48.636;9.798;2022-10-12T05:30:19;97298.75;;;15.80;100.00
2761;BME280;15420;48.636;9.798;2022-10-12T05:32:45;97300.50;;;15.81;100.00
2761;BME280;15420;48.636;9.798;2022-10-12T05:35:11;97297.03;;;15.81;100.00
2761;BME280;15420;48.636;9.798;2022-10-12T05:37:37;97304.84;;;15.82;100.00
2761;BME280;15420;48.636;9.798;2022-10-12T05:40:04;97300.50;;;15.81;100.00
2761;BME280;15420;48.636;9.798;2022-10-12T05:42:32;97303.97;;;15.82;100.00
2761;BME280;15420;48.636;9.798;2022-10-12T05:45:00;97303.09;;;15.81;100.00
2761;BME280;15420;48.636;9.798;2022-10-12T05:47:26;97297.03;;;15.81;100.00
2761;BME280;15420;48.636;9.798;2022-10-12T05:49:54;97304.84;;;15.82;100.00
2761;BME280;15420;48.636;9.798;2022-10-12T05:52:22;97306.56;;;15.83;100.00
2761;BME280;15420;48.636;9.798;2022-10-12T05:54:49;97307.44;;;15.84;100.00
2761;BME280;15420;48.636;9.798;2022-10-12T05:57:15;97310.03;;;15.84;100.00
2761;BME280;15420;48.636;9.798;2022-10-12T05:59:41;97307.47;;;15.85;100.00
2761;BME280;15420;48.636;9.798;2022-10-12T06:02:15;97310.94;;;15.86;100.00
2761;BME280;15420;48.636;9.798;2022-10-12T06:04:46;97312.69;;;15.87;100.00
2761;BME280;15420;48.636;9.798;2022-10-12T06:07:12;97318.72;;;15.86;100.00
2761;BME280;15420;48.636;9.798;2022-10-12T06:09:41;97317.00;;;15.88;100.00
2761;BME280;15420;48.636;9.798;2022-10-12T06:12:07;97317.88;;;15.87;100.00
2761;BME280;15420;48.636;9.798;2022-10-12T06:14:36;97322.22;;;15.88;100.00
2761;BME280;15420;48.636;9.798;2022-10-12T06:17:04;97320.50;;;15.90;100.00
2761;BME280;15420;48.636;9.798;2022-10-12T06:19:31;97320.50;;;15.90;100.00
2761;BME280;15420;48.636;9.798;2022-10-12T06:21:59;97323.97;;;15.90;100.00
2761;BME280;15420;48.636;9.798;2022-10-12T06:24:25;97326.56;;;15.92;100.00
2761;BME280;15420;48.636;9.798;2022-10-12T06:26:51;97332.66;;;15.94;100.00
2761;BME280;15420;48.636;9.798;2022-10-12T06:29:20;97331.81;;;15.95;100.00
2761;BME280;15420;48.636;9.798;2022-10-12T06:31:49;97329.22;;;15.96;100.00
2761;BME280;15420;48.636;9.798;2022-10-12T06:34:19;97330.09;;;15.97;100.00
2761;BME280;15420;48.636;9.798;2022-10-12T06:36:50;97332.69;;;15.98;100.00
2761;BME280;15420;48.636;9.798;2022-10-12T06:39:17;97335.31;;;16.00;100.00
2761;BME280;15420;48.636;9.798;2022-10-12T06:41:44;97337.06;;;16.02;100.00
2761;BME280;15420;48.636;9.798;2022-10-12T06:44:11;97336.22;;;16.03;100.00
2761;BME280;15420;48.636;9.798;2022-10-12T06:46:39;97331.88;;;16.04;100.00
2761;BME280;15420;48.636;9.798;2022-10-12T06:49:05;97339.69;;;16.06;100.00
2761;BME280;15420;48.636;9.798;2022-10-12T06:51:31;97339.72;;;16.09;100.00
2761;BME280;15420;48.636;9.798;2022-10-12T06:53:58;97341.47;;;16.10;100.00
2761;BME280;15420;48.636;9.798;2022-10-12T06:56:24;97340.63;;;16.12;100.00
2761;BME280;15420;48.636;9.798;2022-10-12T06:58:54;97342.38;;;16.15;100.00
2761;BME280;15420;48.636;9.798;2022-10-12T07:01:21;97338.91;;;16.14;100.00
2761;BME280;15420;48.636;9.798;2022-10-12T07:03:47;97337.19;;;16.18;100.00
2761;BME280;15420;48.636;9.798;2022-10-12T07:06:14;97336.38;;;16.22;100.00
2761;BME280;15420;48.636;9.798;2022-10-12T07:08:43;97334.66;;;16.24;100.00
2761;BME280;15420;48.636;9.798;2022-10-12T07:11:11;97339.00;;;16.28;100.00
2761;BME280;15420;48.636;9.798;2022-10-12T07:13:40;97337.28;;;16.30;100.00
2761;BME280;15420;48.636;9.798;2022-10-12T07:16:07;97343.38;;;16.33;100.00
2761;BME280;15420;48.636;9.798;2022-10-12T07:18:33;97343.41;;;16.37;100.00
2761;BME280;15420;48.636;9.798;2022-10-12T07:20:59;97340.84;;;16.41;100.00
2761;BME280;15420;48.636;9.798;2022-10-12T07:23:29;97342.59;;;16.44;100.00
2761;BME280;15420;48.636;9.798;2022-10-12T07:25:55;97338.28;;;16.47;100.00
2761;BME280;15420;48.636;9.798;2022-10-12T07:28:21;97340.03;;;16.51;100.00
2761;BME280;15420;48.636;9.798;2022-10-12T07:30:47;97337.47;;;16.54;100.00
2761;BME280;15420;48.636;9.798;2022-10-12T07:33:14;97334.00;;;16.57;100.00
2761;BME280;15420;48.636;9.798;2022-10-12T07:35:40;97338.34;;;16.58;100.00
2761;BME280;15420;48.636;9.798;2022-10-12T07:38:06;97340.09;;;16.60;100.00
2761;BME280;15420;48.636;9.798;2022-10-12T07:40:36;97337.50;;;16.62;100.00
2761;BME280;15420;48.636;9.798;2022-10-12T07:43:05;97341.84;;;16.63;100.00
2761;BME280;15420;48.636;9.798;2022-10-12T07:45:31;97341.84;;;16.63;100.00
2761;BME280;15420;48.636;9.798;2022-10-12T07:47:58;97340.13;;;16.65;100.00
2761;BME280;15420;48.636;9.798;2022-10-12T07:50:24;97334.94;;;16.66;100.00
2761;BME280;15420;48.636;9.798;2022-10-12T07:52:50;97333.22;;;16.68;100.00
2761;BME280;15420;48.636;9.798;2022-10-12T07:55:17;97336.69;;;16.71;100.00
2761;BME280;15420;48.636;9.798;2022-10-12T07:57:43;97334.97;;;16.73;99.80
2761;BME280;15420;48.636;9.798;2022-10-12T08:00:09;97346.28;;;16.76;98.75
2761;BME280;15420;48.636;9.798;2022-10-12T08:02:38;97335.88;;;16.81;98.61
2761;BME280;15420;48.636;9.798;2022-10-12T08:05:04;97341.97;;;16.84;99.24
2761;BME280;15420;48.636;9.798;2022-10-12T08:07:30;97340.25;;;16.88;98.94
2761;BME280;15420;48.636;9.798;2022-10-12T08:09:56;97341.16;;;16.90;98.37
2761;BME280;15420;48.636;9.798;2022-10-12T08:12:25;97345.50;;;16.91;97.76
2761;BME280;15420;48.636;9.798;2022-10-12T08:14:51;97351.56;;;16.91;97.82
2761;BME280;15420;48.636;9.798;2022-10-12T08:17:19;97349.81;;;16.90;96.28
2761;BME280;15420;48.636;9.798;2022-10-12T08:20:03;97347.25;;;16.93;96.24
2761;BME280;15420;48.636;9.798;2022-10-12T08:22:53;97352.44;;;16.95;96.47
2761;BME280;15420;48.636;9.798;2022-10-12T08:25:22;97348.97;;;16.94;96.64
2761;BME280;15420;48.636;9.798;2022-10-12T08:27:48;97349.84;;;16.96;96.37
2761;BME280;15420;48.636;9.798;2022-10-12T08:30:16;97344.66;;;16.98;96.18
2761;BME280;15420;48.636;9.798;2022-10-12T08:32:49;97346.41;;;16.99;95.76
2761;BME280;15420;48.636;9.798;2022-10-12T08:35:15;97352.47;;;16.99;95.90
2761;BME280;15420;48.636;9.798;2022-10-12T08:37:44;97356.84;;;17.04;95.00
2761;BME280;15420;48.636;9.798;2022-10-12T08:40:29;97350.78;;;17.09;94.75
2761;BME280;15420;48.636;9.798;2022-10-12T08:43:12;97342.97;;;17.11;94.63
2761;BME280;15420;48.636;9.798;2022-10-12T08:45:55;97349.94;;;17.15;95.53
2761;BME280;15420;48.636;9.798;2022-10-12T08:48:48;97341.28;;;17.20;95.15
2761;BME280;15420;48.636;9.798;2022-10-12T08:51:20;97339.53;;;17.19;94.09
2761;BME280;15420;48.636;9.798;2022-10-12T08:54:05;97335.22;;;17.26;93.50
2761;BME280;15420;48.636;9.798;2022-10-12T08:56:35;97337.84;;;17.26;94.36
2761;BME280;15420;48.636;9.798;2022-10-12T08:59:04;97336.13;;;17.31;93.66
2761;BME280;15420;48.636;9.798;2022-10-12T09:01:35;97340.47;;;17.35;93.27
2761;BME280;15420;48.636;9.798;2022-10-12T09:14:30;97347.50;;;17.57;91.77
2761;BME280;15420;48.636;9.798;2022-10-12T09:17:01;97356.19;;;17.61;92.03
2761;BME280;15420;48.636;9.798;2022-10-12T09:19:37;97352.72;;;17.65;91.80
2761;BME280;15420;48.636;9.798;2022-10-12T09:22:13;97355.34;;;17.70;90.83
2761;BME280;15420;48.636;9.798;2022-10-12T09:24:46;97357.09;;;17.72;90.61
2761;BME280;15420;48.636;9.798;2022-10-12T09:27:19;97356.22;;;17.76;89.42
2761;BME280;15420;48.636;9.798;2022-10-12T09:29:54;97346.66;;;17.77;90.05
2761;BME280;15420;48.636;9.798;2022-10-12T09:35:18;97351.88;;;17.80;89.56
2761;BME280;15420;48.636;9.798;2022-10-12T09:37:48;97354.50;;;17.83;89.29
2761;BME280;15420;48.636;9.798;2022-10-12T09:40:24;97353.63;;;17.84;88.56
2761;BME280;15420;48.636;9.798;2022-10-12T09:42:51;97352.75;;;17.83;88.64
2761;BME280;15420;48.636;9.798;2022-10-12T09:45:21;97357.13;;;17.86;88.29
2761;BME280;15420;48.636;9.798;2022-10-12T09:56:22;97353.63;;;17.90;88.18
2761;BME280;15420;48.636;9.798;2022-10-12T09:59:06;97351.91;;;17.95;87.63
2761;BME280;15420;48.636;9.798;2022-10-12T10:02:03;97351.91;;;17.98;87.67
2761;BME280;15420;48.636;9.798;2022-10-12T10:04:29;97344.09;;;18.00;87.92
2761;BME280;15420;48.636;9.798;2022-10-12T10:09:40;97343.22;;;18.05;86.86
2761;BME280;15420;48.636;9.798;2022-10-12T10:12:26;97346.72;;;18.12;86.39
2761;BME280;15420;48.636;9.798;2022-10-12T10:14:54;97345.84;;;18.14;86.30
2761;BME280;15420;48.636;9.798;2022-10-12T10:17:28;97356.28;;;18.17;86.07
2761;BME280;15420;48.636;9.798;2022-10-12T10:19:56;97357.16;;;18.22;86.52
2761;BME280;15420;48.636;9.798;2022-10-12T10:22:25;97353.66;;;18.25;85.54
2761;BME280;15420;48.636;9.798;2022-10-12T10:25:00;97357.16;;;18.30;85.54
2761;BME280;15420;48.636;9.798;2022-10-12T10:27:36;97353.66;;;18.31;84.97
2761;BME280;15420;48.636;9.798;2022-10-12T10:30:29;97354.53;;;18.35;84.54
2761;BME280;15420;48.636;9.798;2022-10-12T10:33:11;97364.09;;;18.36;84.77
2761;BME280;15420;48.636;9.798;2022-10-12T10:35:38;97363.22;;;18.35;84.59
2761;BME280;15420;48.636;9.798;2022-10-12T10:38:04;97361.50;;;18.36;84.22
2761;BME280;15420;48.636;9.798;2022-10-12T10:40:33;97365.84;;;18.37;84.26
2761;BME280;15420;48.636;9.798;2022-10-12T10:43:15;97356.28;;;18.39;84.26
2761;BME280;15420;48.636;9.798;2022-10-12T10:45:56;97365.84;;;18.41;84.39
2761;BME280;15420;48.636;9.798;2022-10-12T10:48:49;97358.88;;;18.42;83.94
2761;BME280;15420;48.636;9.798;2022-10-12T10:51:18;97357.16;;;18.41;84.36
2761;BME280;15420;48.636;9.798;2022-10-12T10:53:50;97355.41;;;18.46;83.64
2761;BME280;15420;48.636;9.798;2022-10-12T11:01:24;97352.78;;;18.53;83.55
2761;BME280;15420;48.636;9.798;2022-10-12T11:06:36;97348.44;;;18.60;83.09
2761;BME280;15420;48.636;9.798;2022-10-12T11:09:10;97340.63;;;18.61;82.56
2761;BME280;15420;48.636;9.798;2022-10-12T11:11:41;97338.00;;;18.65;82.67
2761;BME280;15420;48.636;9.798;2022-10-12T11:14:15;97344.09;;;18.68;83.05
2761;BME280;15420;48.636;9.798;2022-10-12T11:17:02;97338.84;;;18.73;82.94
2761;BME280;15420;48.636;9.798;2022-10-12T11:19:40;97344.03;;;18.76;82.64
2761;BME280;15420;48.636;9.798;2022-10-12T11:22:18;97342.28;;;18.81;82.58
2761;BME280;15420;48.636;9.798;2022-10-12T11:24:58;97337.06;;;18.84;82.45
2761;BME280;15420;48.636;9.798;2022-10-12T11:27:35;97349.25;;;18.88;81.91
2761;BME280;15420;48.636;9.798;2022-10-12T11:30:18;97344.88;;;18.91;81.87
2761;BME280;15420;48.636;9.798;2022-10-12T11:33:06;97341.38;;;18.95;81.70
2761;BME280;15420;48.636;9.798;2022-10-12T11:35:44;97340.50;;;18.97;80.91
2761;BME280;15420;48.636;9.798;2022-10-12T11:38:30;97337.88;;;19.00;80.69
2761;BME280;15420;48.636;9.798;2022-10-12T11:41:07;97324.84;;;19.00;81.17
2761;BME280;15420;48.636;9.798;2022-10-12T11:44:03;97332.66;;;19.06;80.42
2761;BME280;15420;48.636;9.798;2022-10-12T11:46:35;97323.06;;;19.06;80.71
2761;BME280;15420;48.636;9.798;2022-10-12T11:49:12;97322.16;;;19.12;80.18
2761;BME280;15420;48.636;9.798;2022-10-12T11:51:44;97327.41;;;19.13;80.16
2761;BME280;15420;48.636;9.798;2022-10-12T11:56:51;97320.38;;;19.23;80.09
2761;BME280;15420;48.636;9.798;2022-10-12T12:02:22;97315.97;;;19.36;79.61
2761;BME280;15420;48.636;9.798;2022-10-12T12:04:51;97309.00;;;19.36;79.98
2761;BME280;15420;48.636;9.798;2022-10-12T12:18:25;97305.47;;;19.46;78.11
2761;BME280;15420;48.636;9.798;2022-10-12T12:21:04;97314.16;;;19.47;78.87
2761;BME280;15420;48.636;9.798;2022-10-12T12:26:21;97301.97;;;19.47;78.59
2761;BME280;15420;48.636;9.798;2022-10-12T12:29:06;97298.47;;;19.48;78.24
2761;BME280;15420;48.636;9.798;2022-10-12T12:31:38;97305.44;;;19.51;78.62
2761;BME280;15420;48.636;9.798;2022-10-12T12:34:16;97301.09;;;19.54;78.42
2761;BME280;15420;48.636;9.798;2022-10-12T12:36:44;97307.19;;;19.55;78.86
2761;BME280;15420;48.636;9.798;2022-10-12T12:39:30;97301.06;;;19.57;78.06
2761;BME280;15420;48.636;9.798;2022-10-12T12:41:59;97302.81;;;19.57;78.46
2761;BME280;15420;48.636;9.798;2022-10-12T12:44:40;97300.19;;;19.60;78.47
2761;BME280;15420;48.636;9.798;2022-10-12T12:49:41;97298.47;;;19.57;77.39
2761;BME280;15420;48.636;9.798;2022-10-12T13:00:25;97296.72;;;19.55;78.44
2761;BME280;15420;48.636;9.798;2022-10-12T13:14:05;97281.03;;;19.56;77.49
2761;BME280;15420;48.636;9.798;2022-10-12T13:19:12;97281.91;;;19.49;76.22
2761;BME280;15420;48.636;9.798;2022-10-12T13:21:47;97276.69;;;19.49;76.36
2761;BME280;15420;48.636;9.798;2022-10-12T13:24:22;97272.34;;;19.48;75.81
2761;BME280;15420;48.636;9.798;2022-10-12T13:26:54;97280.16;;;19.50;76.54
2761;BME280;15420;48.636;9.798;2022-10-12T13:31:53;97277.56;;;19.51;76.56
2761;BME280;15420;48.636;9.798;2022-10-12T13:34:35;97276.69;;;19.54;76.85
2761;BME280;15420;48.636;9.798;2022-10-12T13:37:15;97278.44;;;19.55;76.48
2761;BME280;15420;48.636;9.798;2022-10-12T13:39:44;97280.19;;;19.53;76.35
2761;BME280;15420;48.636;9.798;2022-10-12T13:42:21;97279.28;;;19.55;76.67
2761;BME280;15420;48.636;9.798;2022-10-12T13:44:50;97274.06;;;19.54;76.29
2761;BME280;15420;48.636;9.798;2022-10-12T13:47:32;97274.06;;;19.55;76.30
2761;BME280;15420;48.636;9.798;2022-10-12T13:49:59;97279.31;;;19.54;76.53
2761;BME280;15420;48.636;9.798;2022-10-12T13:52:32;97267.97;;;19.55;76.51
2761;BME280;15420;48.636;9.798;2022-10-12T13:54:59;97261.00;;;19.52;76.21
2761;BME280;15420;48.636;9.798;2022-10-12T13:57:39;97261.00;;;19.55;76.26
2761;BME280;15420;48.636;9.798;2022-10-12T14:02:52;97256.66;;;19.53;76.31
2761;BME280;15420;48.636;9.798;2022-10-12T14:05:27;97258.41;;;19.54;76.33
2761;BME280;15420;48.636;9.798;2022-10-12T14:08:04;97249.69;;;19.53;76.23
2761;BME280;15420;48.636;9.798;2022-10-12T14:10:36;97261.00;;;19.52;75.43
2761;BME280;15420;48.636;9.798;2022-10-12T14:13:04;97259.28;;;19.51;75.88
2761;BME280;15420;48.636;9.798;2022-10-12T14:15:35;97256.66;;;19.53;76.50
2761;BME280;15420;48.636;9.798;2022-10-12T14:18:04;97248.81;;;19.53;76.54
2761;BME280;15420;48.636;9.798;2022-10-12T14:20:49;97253.16;;;19.52;76.95
2761;BME280;15420;48.636;9.798;2022-10-12T14:23:20;97252.28;;;19.56;76.50
2761;BME280;15420;48.636;9.798;2022-10-12T14:25:56;97245.28;;;19.58;75.77
2761;BME280;15420;48.636;9.798;2022-10-12T14:28:34;97233.06;;;19.62;76.88
2761;BME280;15420;48.636;9.798;2022-10-12T14:31:01;97253.97;;;19.62;76.84
2761;BME280;15420;48.636;9.798;2022-10-12T14:33:27;97242.63;;;19.65;75.92
2761;BME280;15420;48.636;9.798;2022-10-12T14:36:24;97246.06;;;19.70;75.65
2761;BME280;15420;48.636;9.798;2022-10-12T14:38:52;97250.44;;;19.69;75.73
2761;BME280;15420;48.636;9.798;2022-10-12T14:41:41;97243.47;;;19.70;74.88
2761;BME280;15420;48.636;9.798;2022-10-12T14:44:22;97240.84;;;19.70;75.13
2761;BME280;15420;48.636;9.798;2022-10-12T14:49:23;97239.09;;;19.70;74.75
2761;BME280;15420;48.636;9.798;2022-10-12T14:51:52;97242.56;;;19.72;74.60
2761;BME280;15420;48.636;9.798;2022-10-12T14:54:21;97241.69;;;19.73;74.90
2761;BME280;15420;48.636;9.798;2022-10-12T14:56:47;97238.22;;;19.73;75.03
2761;BME280;15420;48.636;9.798;2022-10-12T14:59:13;97237.34;;;19.74;75.35
2761;BME280;15420;48.636;9.798;2022-10-12T15:01:40;97241.72;;;19.72;75.03
2761;BME280;15420;48.636;9.798;2022-10-12T15:04:12;97237.38;;;19.69;74.09
2761;BME280;15420;48.636;9.798;2022-10-12T15:06:43;97236.50;;;19.67;74.49
2761;BME280;15420;48.636;9.798;2022-10-12T15:09:09;97240.91;;;19.62;73.92
2761;BME280;15420;48.636;9.798;2022-10-12T15:11:35;97236.56;;;19.61;73.93
2761;BME280;15420;48.636;9.798;2022-10-12T15:14:01;97240.94;;;19.57;73.61